Time;durP1;ratioP1;P1;durP2;ratioP2;P2;SDS_P1;SDS_P2;PMS_P1;PMS_P2;Temp;Humidity;BMP_temperature;BMP_pressure;BME280_temperature;BME280_humidity;BME280_pressure;Samples;Min_cycle;Max_cycle;Signal;HPM_P1;HPM_P2
2022/12/16 00:00:05;;;;;;;15.75;5.20;;;1.10;99.90;;;;;;5017219;28;20052;-67
2022/12/16 00:02:31;;;;;;;9.40;4.97;;;1.20;99.90;;;;;;5020843;28;20041;-67
2022/12/16 00:04:57;;;;;;;9.98;5.13;;;1.10;99.90;;;;;;5018614;28;20549;-68
2022/12/16 00:07:23;;;;;;;9.68;5.40;;;1.10;99.90;;;;;;5017354;28;20038;-66
2022/12/16 00:09:48;;;;;;;10.32;4.78;;;1.10;99.90;;;;;;5018945;28;20132;-67
2022/12/16 00:12:14;;;;;;;8.93;4.73;;;1.20;99.90;;;;;;5019681;28;20405;-67
2022/12/16 00:14:40;;;;;;;10.70;4.80;;;1.20;99.90;;;;;;5020283;28;20058;-66
2022/12/16 00:17:05;;;;;;;9.97;5.20;;;1.20;99.90;;;;;;5017288;28;20095;-66
2022/12/16 00:19:31;;;;;;;9.10;4.13;;;1.20;99.90;;;;;;5018084;28;20534;-67
2022/12/16 00:21:57;;;;;;;7.10;3.70;;;1.10;99.90;;;;;;5013253;28;20056;-67
2022/12/16 00:24:22;;;;;;;7.90;5.17;;;1.10;99.90;;;;;;5019754;28;20558;-67
2022/12/16 00:26:48;;;;;;;8.80;4.70;;;1.10;99.90;;;;;;5014822;28;20073;-67
2022/12/16 00:29:14;;;;;;;9.13;4.23;;;1.10;99.90;;;;;;5018143;28;20041;-67
2022/12/16 00:31:40;;;;;;;8.37;4.47;;;1.00;99.90;;;;;;5008664;28;20055;-67
2022/12/16 00:34:05;;;;;;;9.03;4.80;;;1.00;99.90;;;;;;5011156;28;20042;-67
2022/12/16 00:36:31;;;;;;;6.73;3.97;;;0.90;99.90;;;;;;5019275;28;20079;-67
2022/12/16 00:38:57;;;;;;;9.93;4.47;;;0.90;99.90;;;;;;5012175;28;20120;-67
2022/12/16 00:41:22;;;;;;;10.90;3.77;;;0.80;99.90;;;;;;5012948;28;20245;-67
2022/12/16 00:43:48;;;;;;;9.77;3.90;;;0.80;99.90;;;;;;5014584;28;20515;-67
2022/12/16 00:46:14;;;;;;;9.77;4.07;;;0.80;99.90;;;;;;5021638;28;20045;-67
2022/12/16 00:48:39;;;;;;;10.87;3.47;;;0.80;99.90;;;;;;5013439;28;20040;-67
2022/12/16 00:51:05;;;;;;;4.80;3.00;;;0.70;99.90;;;;;;5018938;28;20523;-67
2022/12/16 00:53:31;;;;;;;9.13;3.40;;;0.70;99.90;;;;;;5018443;28;20420;-68
2022/12/16 00:56:05;;;;;;;6.33;3.60;;;0.60;99.90;;;;;;5020530;28;20491;-67
2022/12/16 00:58:31;;;;;;;8.70;3.38;;;0.70;99.90;;;;;;5006845;28;20044;-67
2022/12/16 01:00:56;;;;;;;6.60;3.00;;;0.60;99.90;;;;;;5012655;28;20696;-67
2022/12/16 01:03:22;;;;;;;5.57;2.50;;;0.60;99.90;;;;;;5017675;28;20049;-68
2022/12/16 01:05:48;;;;;;;6.73;2.97;;;0.60;99.90;;;;;;5012279;28;20362;-67
2022/12/16 01:08:14;;;;;;;5.40;3.03;;;0.60;99.90;;;;;;5017072;28;20087;-66
2022/12/16 01:10:39;;;;;;;7.93;2.83;;;0.60;99.90;;;;;;5012571;28;20481;-66
2022/12/16 01:13:05;;;;;;;9.07;3.93;;;0.60;99.90;;;;;;5017871;28;20093;-67
2022/12/16 01:15:30;;;;;;;5.27;2.90;;;0.60;99.90;;;;;;5019203;28;20077;-67
2022/12/16 01:17:57;;;;;;;8.33;3.00;;;0.60;99.90;;;;;;5019992;28;22082;-68
2022/12/16 01:20:23;;;;;;;;;;;0.50;99.90;;;;;;5005427;28;20758;-67
2022/12/16 01:22:48;;;;;;;6.97;2.42;;;0.50;99.90;;;;;;5011695;28;20011;-67
2022/12/16 01:25:14;;;;;;;5.73;2.50;;;0.40;99.90;;;;;;5035522;28;20049;-67
2022/12/16 01:27:40;;;;;;;5.03;2.47;;;0.40;99.90;;;;;;5014190;28;20418;-66
2022/12/16 01:30:08;;;;;;;9.30;3.13;;;0.40;99.90;;;;;;5021602;28;20116;-66
2022/12/16 01:32:33;;;;;;;7.47;2.83;;;0.40;99.90;;;;;;5021028;28;20057;-66
2022/12/16 01:34:59;;;;;;;8.03;3.13;;;0.30;99.90;;;;;;5020419;28;20274;-67
2022/12/16 01:37:28;;;;;;;8.27;2.87;;;0.30;99.90;;;;;;5018006;28;20038;-67
2022/12/16 01:39:54;;;;;;;6.07;2.35;;;0.30;99.90;;;;;;5018841;28;20068;-67
2022/12/16 01:42:21;;;;;;;9.45;2.63;;;0.30;99.90;;;;;;5015563;28;20037;-67
2022/12/16 01:44:49;;;;;;;7.28;3.45;;;0.30;99.90;;;;;;5015109;28;20402;-67
2022/12/16 01:47:35;;;;;;;6.75;2.78;;;0.30;99.90;;;;;;5014078;28;20073;-66
2022/12/16 01:50:06;;;;;;;5.47;2.88;;;0.20;99.90;;;;;;5010493;28;20045;-67
2022/12/16 01:52:36;;;;;;;8.50;3.10;;;0.20;99.90;;;;;;5015394;28;20084;-67
2022/12/16 01:55:30;;;;;;;7.13;3.20;;;0.20;99.90;;;;;;5015594;28;20049;-68
2022/12/16 01:58:04;;;;;;;6.43;2.60;;;0.10;99.90;;;;;;5030877;28;20535;-67
2022/12/16 02:00:30;;;;;;;7.13;2.80;;;0.10;99.90;;;;;;5018542;28;20038;-67
2022/12/16 02:02:56;;;;;;;8.77;3.00;;;0.10;99.90;;;;;;5014293;28;20422;-67
2022/12/16 02:05:23;;;;;;;7.03;3.28;;;0.10;99.90;;;;;;5023988;28;20091;-67
2022/12/16 02:08:03;;;;;;;6.18;2.78;;;0.10;99.90;;;;;;5019218;28;20478;-67
2022/12/16 02:10:39;;;;;;;5.93;3.13;;;0.20;99.90;;;;;;5014360;28;20487;-67
2022/12/16 02:13:16;;;;;;;6.43;2.92;;;0.20;99.90;;;;;;5018074;28;20029;-66
2022/12/16 02:16:08;;;;;;;8.10;3.08;;;0.20;99.90;;;;;;5013199;28;20499;-67
2022/12/16 02:18:49;;;;;;;6.68;3.10;;;0.20;99.90;;;;;;4967437;28;20142;-67
2022/12/16 02:21:27;;;;;;;6.18;2.95;;;0.20;99.90;;;;;;5020160;28;20088;-68
2022/12/16 02:23:55;;;;;;;7.97;2.92;;;0.30;99.90;;;;;;5033762;28;20171;-67
2022/12/16 02:26:45;;;;;;;6.18;3.13;;;0.20;99.90;;;;;;5020417;28;20046;-67
2022/12/16 02:29:30;;;;;;;7.35;2.88;;;0.30;99.90;;;;;;5018210;28;20519;-67
2022/12/16 02:32:13;;;;;;;6.88;3.35;;;0.30;99.90;;;;;;5016837;28;20163;-67
2022/12/16 02:35:00;;;;;;;6.95;3.40;;;0.30;99.90;;;;;;5024236;28;20248;-67
2022/12/16 02:37:41;;;;;;;6.55;3.38;;;0.40;99.90;;;;;;5021427;28;20083;-68
2022/12/16 02:40:31;;;;;;;6.85;3.20;;;0.40;99.90;;;;;;5022010;28;20041;-67
2022/12/16 02:43:06;;;;;;;7.85;3.35;;;0.50;99.90;;;;;;5018292;28;20127;-68
2022/12/16 02:45:33;;;;;;;9.85;4.00;;;0.40;99.90;;;;;;5021325;28;20041;-77
2022/12/16 02:47:58;;;;;;;14.13;3.85;;;0.50;99.90;;;;;;5004091;28;20045;-67
2022/12/16 02:50:48;;;;;;;7.23;3.27;;;0.60;99.90;;;;;;5023783;28;20034;-67
2022/12/16 02:53:14;;;;;;;9.88;3.30;;;0.50;99.90;;;;;;5021570;28;20100;-68
2022/12/16 02:56:04;;;;;;;9.43;3.65;;;0.50;99.90;;;;;;5020667;28;20471;-67
2022/12/16 02:59:04;;;;;;;7.70;3.55;;;0.50;99.90;;;;;;5024411;28;20033;-68
2022/12/16 03:01:46;;;;;;;8.82;3.08;;;0.50;99.90;;;;;;4959602;28;20044;-68
2022/12/16 03:04:22;;;;;;;11.88;3.75;;;0.50;99.90;;;;;;5014186;28;20045;-67
2022/12/16 03:06:51;;;;;;;10.23;3.83;;;0.60;99.90;;;;;;5033832;28;20041;-67
2022/12/16 03:09:27;;;;;;;7.15;3.08;;;0.60;99.90;;;;;;5025835;28;20037;-68
2022/12/16 03:11:54;;;;;;;9.88;4.03;;;0.60;99.90;;;;;;5020696;28;20041;-67
2022/12/16 03:14:22;;;;;;;6.65;3.17;;;0.70;99.90;;;;;;5021432;28;20041;-67
2022/12/16 03:16:49;;;;;;;9.20;3.85;;;0.60;99.90;;;;;;5021824;28;20038;-68
2022/12/16 03:19:14;;;;;;;;;;;0.70;99.90;;;;;;5023047;28;20125;-66
2022/12/16 03:21:55;;;;;;;7.40;3.13;;;0.70;99.90;;;;;;5023042;28;20434;-67
2022/12/16 03:24:20;;;;;;;5.10;3.20;;;0.70;99.90;;;;;;5016102;28;20041;-67
2022/12/16 03:26:55;;;;;;;7.93;3.37;;;0.80;99.90;;;;;;5018606;28;20049;-67
2022/12/16 03:29:38;;;;;;;7.75;3.10;;;0.80;99.90;;;;;;5021532;28;20094;-67
2022/12/16 03:32:10;;;;;;;6.63;3.40;;;0.80;99.90;;;;;;5020403;28;20099;-67
2022/12/16 03:35:00;;;;;;;6.15;2.35;;;0.70;99.90;;;;;;5023002;28;20050;-68
2022/12/16 03:37:30;;;;;;;8.93;3.33;;;0.70;99.90;;;;;;5019300;28;20037;-67
2022/12/16 03:39:59;;;;;;;8.55;2.70;;;0.70;99.90;;;;;;5023722;28;20513;-67
2022/12/16 03:42:25;;;;;;;9.20;3.63;;;0.70;99.90;;;;;;5035263;28;20071;-66
2022/12/16 03:44:51;;;;;;;7.93;3.00;;;0.70;99.90;;;;;;5024812;28;20053;-67
2022/12/16 03:47:17;;;;;;;7.80;2.57;;;0.70;99.90;;;;;;5020039;28;20123;-68
2022/12/16 03:49:42;;;;;;;8.37;3.53;;;0.70;99.90;;;;;;5012643;28;20525;-67
2022/12/16 03:52:08;;;;;;;9.30;3.33;;;0.70;99.90;;;;;;5021890;28;20045;-67
2022/12/16 03:54:34;;;;;;;5.22;2.55;;;0.60;99.90;;;;;;5020790;28;20137;-69
2022/12/16 03:57:00;;;;;;;8.57;3.40;;;0.60;99.90;;;;;;5012447;28;20049;-68
2022/12/16 03:59:25;;;;;;;6.23;2.60;;;0.60;99.90;;;;;;5022113;28;20044;-67
2022/12/16 04:01:51;;;;;;;4.60;2.60;;;0.60;99.90;;;;;;5024226;28;20045;-68
2022/12/16 04:04:17;;;;;;;7.53;3.17;;;0.60;99.90;;;;;;5022055;28;20689;-67
2022/12/16 04:06:43;;;;;;;5.73;3.20;;;0.60;99.90;;;;;;5024609;28;22059;-68
2022/12/16 04:09:09;;;;;;;7.87;3.53;;;0.60;99.90;;;;;;5017927;28;20291;-68
2022/12/16 04:25:37;;;;;;;4.70;2.40;;;0.60;99.90;;;;;;4981471;28;20058;-68
2022/12/16 04:28:03;;;;;;;6.80;2.40;;;0.60;99.90;;;;;;4985243;28;20403;-68
2022/12/16 04:30:33;;;;;;;5.93;2.60;;;0.70;99.90;;;;;;5013820;28;20068;-68
